Terminal Aerodrome Forecast
Issued by NWS

Home | Current Version | Previous Version | Text Only | Print | Product List | Glossary On
Versions: 1 2 3 4 5 6 7 8 9 10 11 12
000
FTUS46 KPDT 280500
TAFRDM
TAF
KRDM 280520Z 2806/2906 13003KT P6SM FEW050 SCT070
     FM280900 16003KT P6SM SCT020 BKN050
     FM281300 15005KT P6SM OVC120
     FM282200 36003KT P6SM OVC120
     FM290200 14003KT P6SM SCT040 BKN100=

USA.gov is the U.S. government's official web portal to all federal, state and local government web resources and services.